Flight Track Log - Related Links

Times and Time Zones

All times are in EDT time to prevent confusion due to time zone crossing. See the EJA368 flight status page for this flight to view local times or setup timezone preferences in your user account.

Time Position Orientation Groundspeed Altitude Reporting Facility
EDT Latitude Longitude Course Direction KTS MPH feet Rate Location/Type
Sat 01:04:41 PM 43.5864 -110.7506 134° Southeast 160 184 7,800  Level Salt Lake Center
Sat 01:05:43 PM 43.5369 -110.7831 205° Southwest 194 223 11,300 2,516 Climbing Salt Lake Center
Sat 01:06:45 PM 43.4711 -110.8258 205° Southwest 251 289 13,000 871 Climbing Salt Lake Center
Sat 01:07:00 PM 43.0354 -110.7249 136° Southeast  Level FlightAware Approximate
Sat 01:07:47 PM 43.3850 -110.8808 205° Southwest 325 374 13,100  Level Salt Lake Center
Sat 01:08:00 PM 42.9537 -110.6148 134° Southeast  Level FlightAware Approximate
Sat 01:08:49 PM 43.3003 -110.9358 205° Southwest 336 387 14,100  Level Salt Lake Center
Sat 01:09:00 PM 42.8744 -110.5014 134° Southeast  Level FlightAware Approximate
Sat 01:09:50 PM 43.2022 -110.9536 188° South 374 430 16,500  Level Salt Lake Center
Sat 01:10:52 PM 43.1206 -110.8483 137° Southeast 414 476 18,800 2,661 Climbing Salt Lake Center
Sat 01:11:54 PM 43.0314 -110.7133 132° Southeast 411 473 22,000 2,613 Climbing Salt Lake Center
Sat 01:12:56 PM 42.9581 -110.6017 132° Southeast 413 475 24,200 2,226 Climbing Salt Lake Center
Sat 01:13:58 PM 42.8683 -110.4689 133° Southeast 424 488 26,600 2,129 Climbing Salt Lake Center
Sat 01:15:00 PM 42.7906 -110.3522 132° Southeast 433 498 28,600 1,984 Climbing Salt Lake Center
Sat 01:16:02 PM 42.6975 -110.2117 132° Southeast 440 506 30,700 1,694 Climbing Salt Lake Center
Sat 01:17:04 PM 42.6186 -110.0936 132° Southeast 441 507 32,100 1,161 Climbing Salt Lake Center
Sat 01:18:06 PM 42.5381 -109.9744 133° Southeast 447 514 33,100 968 Climbing Salt Lake Center
Sat 01:19:08 PM 42.4400 -109.8300 133° Southeast 463 533 34,100 823 Climbing Salt Lake Center
Sat 01:20:10 PM 42.3550 -109.7058 133° Southeast 468 539 34,800 774 Climbing Salt Lake Center
Sat 01:21:12 PM 42.2550 -109.5589 133° Southeast 473 544 35,700 871 Climbing Salt Lake Center
Sat 01:22:14 PM 42.1686 -109.4325 133° Southeast 477 549 36,600 968 Climbing Salt Lake Center
Sat 01:23:16 PM 42.0689 -109.2869 133° Southeast 474 545 37,700 919 Climbing Salt Lake Center
Sat 01:24:18 PM 41.9847 -109.1647 133° Southeast 469 540 38,500 726 Climbing Salt Lake Center
Sat 01:25:20 PM 41.8858 -109.0219 133° Southeast 466 536 39,200 677 Climbing Salt Lake Center
Sat 01:26:22 PM 41.7997 -108.8997 133° Southeast 467 537 39,900 677 Climbing Salt Lake Center
Sat 01:27:24 PM 41.7158 -108.7803 133° Southeast 458 527 40,600 532 Climbing Salt Lake Center
Sat 01:28:26 PM 41.6183 -108.6400 133° Southeast 457 526 41,000 218 Climbing Salt Lake Center
Sat 01:29:14 PM 41.5472 -108.5389 133° Southeast 458 527 41,000  Level Denver Center
Sat 01:30:16 PM 41.4764 -108.4400 134° Southeast 460 529 41,000  Level Denver Center
Sat 01:31:19 PM 41.3631 -108.2819 134° Southeast 460 529 41,000  Level Denver Center
Sat 01:32:21 PM 41.2786 -108.1628 133° Southeast 461 531 41,000  Level Denver Center
Sat 01:33:23 PM 41.1778 -108.0244 134° Southeast 465 535 41,000  Level Denver Center
Sat 01:34:25 PM 41.0925 -107.9075 134° Southeast 463 533 41,000  Level Denver Center
Sat 01:35:27 PM 40.9803 -107.7900 142° Southeast 461 531 41,000  Level Denver Center
Sat 01:36:29 PM 40.8814 -107.6953 144° Southeast 458 527 41,000  Level Denver Center
Sat 01:37:31 PM 40.7669 -107.5844 144° Southeast 456 525 41,000  Level Denver Center
Sat 01:38:33 PM 40.6650 -107.4814 143° Southeast 453 521 41,000  Level Denver Center
Sat 01:39:35 PM 40.5669 -107.3853 143° Southeast 457 526 41,000  Level Denver Center
Sat 01:40:37 PM 40.4556 -107.2731 143° Southeast 453 521 41,000  Level Denver Center
Sat 01:41:39 PM 40.3622 -107.1725 141° Southeast 454 522 41,000  Level Denver Center
Sat 01:42:41 PM 40.2781 -107.0556 133° Southeast 460 529 41,000  Level Denver Center
Sat 01:43:43 PM 40.1789 -106.9181 133° Southeast 462 532 41,000  Level Denver Center
Sat 01:44:45 PM 40.0939 -106.8014 134° Southeast 462 532 41,000  Level Denver Center
Sat 01:45:47 PM 39.9947 -106.6636 133° Southeast 463 533 41,000  Level Denver Center
Sat 01:46:50 PM 39.9017 -106.5342 133° Southeast 465 535 41,000  Level Denver Center
Sat 01:47:52 PM 39.8114 -106.4125 134° Southeast 469 540 41,000  Level Denver Center
Sat 01:48:54 PM 39.7225 -106.2911 134° Southeast 466 536 41,000  Level Denver Center
Sat 01:49:56 PM 39.6281 -106.1628 134° Southeast 472 543 41,000  Level Denver Center
Sat 01:50:58 PM 39.5408 -106.0472 134° Southeast 470 541 41,000  Level Denver Center
Sat 01:52:00 PM 39.4322 -105.9014 134° Southeast 469 540 41,000  Level Denver Center
Sat 01:53:02 PM 39.3422 -105.7797 134° Southeast 472 543 41,000  Level Denver Center
Sat 01:54:04 PM 39.2531 -105.6597 134° Southeast 467 537 41,000  Level Denver Center
Sat 01:55:06 PM 39.1617 -105.5386 134° Southeast 471 542 41,000  Level Denver Center
Sat 01:56:08 PM 39.0703 -105.4167 134° Southeast 476 548 41,000  Level Denver Center
Sat 01:57:10 PM 38.9611 -105.2742 135° Southeast 470 541 41,000  Level Denver Center
Sat 01:58:12 PM 38.8692 -105.1533 134° Southeast 474 545 41,000  Level Denver Center
Sat 01:59:14 PM 38.7775 -105.0328 134° Southeast 475 547 41,000  Level Denver Center
Sat 02:00:29 PM 38.6683 -104.8894 134° Southeast 474 545 41,000  Level Denver Center
Sat 02:01:31 PM 38.5753 -104.7683 134° Southeast 480 552 41,000  Level Denver Center
Sat 02:02:33 PM 38.4642 -104.6253 135° Southeast 477 549 41,000  Level Denver Center
Sat 02:03:35 PM 38.3714 -104.5039 134° Southeast 478 550 41,000  Level Denver Center
Sat 02:04:37 PM 38.2725 -104.3814 136° Southeast 471 542 41,000  Level Denver Center
Sat 02:05:39 PM 38.1831 -104.2669 135° Southeast 474 545 41,000  Level Denver Center
Sat 02:06:41 PM 38.0792 -104.1353 135° Southeast 470 541 41,000  Level Denver Center
Sat 02:07:43 PM 38.0039 -104.0411 135° Southeast 473 544 41,000  Level Denver Center
Sat 02:08:46 PM 37.9000 -103.9086 135° Southeast 471 542 41,000  Level Denver Center
Sat 02:09:47 PM 37.7947 -103.7764 135° Southeast 472 543 41,000  Level Denver Center
Sat 02:10:49 PM 37.7044 -103.6631 135° Southeast 473 544 41,000  Level Denver Center
Sat 02:11:51 PM 37.5989 -103.5322 135° Southeast 473 544 41,000  Level Denver Center
Sat 02:12:53 PM 37.5092 -103.4206 135° Southeast 471 542 41,000  Level Denver Center
Sat 02:13:55 PM 37.4050 -103.2925 136° Southeast 466 536 41,000  Level Denver Center
Sat 02:14:58 PM 37.3147 -103.1828 136° Southeast 469 540 41,000  Level Denver Center
Sat 02:16:12 PM 37.2264 -103.0733 135° Southeast 467 537 41,000  Level Denver Center
Sat 02:17:14 PM 37.1119 -102.9242 134° Southeast 465 535 41,000  Level Denver Center
Sat 02:18:17 PM 37.0253 -102.7808 127° Southeast 466 536 41,000  Level Albuquerque Center
Sat 02:19:19 PM 36.9489 -102.6583 128° Southeast 465 535 41,000  Level Albuquerque Center
Sat 02:20:20 PM 36.8639 -102.5222 128° Southeast 466 536 41,000  Level Albuquerque Center
Sat 02:21:22 PM 36.7867 -102.3986 128° Southeast 470 541 41,000  Level Albuquerque Center
Sat 02:22:23 PM 36.7061 -102.2731 129° Southeast 467 537 41,000  Level Albuquerque Center
Sat 02:23:25 PM 36.6208 -102.1381 128° Southeast 464 534 41,000  Level Albuquerque Center
Sat 02:24:26 PM 36.5303 -101.9936 128° Southeast 468 539 41,000  Level Albuquerque Center
Sat 02:25:28 PM 36.4511 -101.8703 129° Southeast 461 531 41,000  Level Albuquerque Center
Sat 02:26:29 PM 36.3706 -101.7461 129° Southeast 461 531 41,000  Level Albuquerque Center
Sat 02:27:31 PM 36.2900 -101.6203 128° Southeast 462 532 41,000  Level Albuquerque Center
Sat 02:28:33 PM 36.2100 -101.4953 128° Southeast 462 532 41,000  Level Albuquerque Center
Sat 02:29:34 PM 36.1294 -101.3706 129° Southeast 463 533 41,000  Level Albuquerque Center
Sat 02:30:36 PM 36.0442 -101.2369 128° Southeast 466 536 41,000  Level Albuquerque Center
Sat 02:31:37 PM 35.9667 -101.1194 129° Southeast 465 535 41,000  Level Albuquerque Center
Sat 02:32:39 PM 35.8850 -100.9944 129° Southeast 466 536 41,000  Level Albuquerque Center
Sat 02:33:40 PM 35.8006 -100.8647 129° Southeast 464 534 41,000  Level Albuquerque Center
Sat 02:34:42 PM 35.7067 -100.7217 129° Southeast 465 535 41,000  Level Albuquerque Center
Sat 02:35:44 PM 35.6183 -100.5914 130° Southeast 469 540 41,000  Level Albuquerque Center
Sat 02:36:45 PM 35.5386 -100.4692 129° Southeast 466 536 41,000  Level Albuquerque Center
Sat 02:37:47 PM 35.4569 -100.3467 129° Southeast 464 534 41,000  Level Albuquerque Center
Sat 02:38:48 PM 35.3761 -100.2247 129° Southeast 463 533 41,000  Level Albuquerque Center
Sat 02:39:50 PM 35.2939 -100.1033 130° Southeast 464 534 41,000  Level Albuquerque Center
Sat 02:40:51 PM 35.2117 -99.9828 130° Southeast 462 532 41,000  Level Albuquerque Center
Sat 02:41:53 PM 35.1303 -99.8617 129° Southeast 462 532 41,000  Level Albuquerque Center
Sat 02:42:34 PM 35.0608 -99.7647 131° Southeast 461 531 41,000  Level Fort Worth Center
Sat 02:43:34 PM 34.9794 -99.6436 129° Southeast 461 531 41,000 -600 Level Fort Worth Center
Sat 02:44:34 PM 34.8983 -99.5225 129° Southeast 461 531 39,800 -1,700 Descending Fort Worth Center
Sat 02:45:34 PM 34.8167 -99.4014 129° Southeast 466 536 37,600 -2,050 Descending Fort Worth Center
Sat 02:46:34 PM 34.7331 -99.2858 131° Southeast 461 531 35,700 -1,750 Descending Fort Worth Center
Sat 02:47:34 PM 34.6494 -99.1603 129° Southeast 467 537 34,100 -1,600 Descending Fort Worth Center
Sat 02:48:34 PM 34.5675 -99.0475 131° Southeast 467 537 32,500 -1,550 Descending Fort Worth Center
Sat 02:49:34 PM 34.4814 -98.9225 130° Southeast 469 540 31,000 -1,450 Descending Fort Worth Center
Sat 02:50:34 PM 34.3972 -98.8003 130° Southeast 469 540 29,600 -1,550 Descending Fort Worth Center
Sat 02:51:34 PM 34.3108 -98.6808 131° Southeast 464 534 27,900 -1,800 Descending Fort Worth Center
Sat 02:52:34 PM 34.2264 -98.5564 129° Southeast 464 534 26,000 -1,750 Descending Fort Worth Center
Sat 02:53:34 PM 34.1439 -98.4425 131° Southeast 464 534 24,400 -1,000 Descending Fort Worth Center
Sat 02:54:34 PM 34.0678 -98.3286 129° Southeast 459 528 24,000 -200 Descending Fort Worth Center
Sat 02:55:34 PM 33.9872 -98.2125 130° Southeast 454 522 24,000  Level Fort Worth Center
Sat 02:56:34 PM 33.9064 -98.1042 132° Southeast 449 517 24,000 -850 Level Fort Worth Center
Sat 02:57:34 PM 33.8358 -98.0036 130° Southeast 439 505 22,300 -2,150 Descending Fort Worth Center
Sat 02:58:34 PM 33.7508 -97.8856 131° Southeast 432 497 19,700 -2,350 Descending Fort Worth Center
Sat 02:59:34 PM 33.6761 -97.7803 130° Southeast 421 484 17,600 -2,100 Descending Fort Worth Center
Sat 03:00:34 PM 33.6033 -97.6778 130° Southeast 411 473 15,500 -2,000 Descending Fort Worth Center
Sat 03:01:34 PM 33.5367 -97.5903 132° Southeast 401 461 13,600 -1,950 Descending Fort Worth Center
Sat 03:02:34 PM 33.4658 -97.4906 130° Southeast 375 432 11,600 -1,850 Descending Fort Worth Center
Sat 03:03:34 PM 33.4094 -97.4258 136° Southeast 331 381 9,900 -1,950 Descending Fort Worth Center
Sat 03:04:34 PM 33.3678 -97.3464 122° Southeast 260 299 7,700 -2,250 Descending Fort Worth Center
Sat 03:05:34 PM 33.3761 -97.2667 83° East 245 282 5,400 -1,850 Descending Fort Worth Center
Sat 03:06:34 PM 33.3717 -97.1672 93° East 257 296 4,000 -700 Descending Fort Worth Center
Sat 03:07:34 PM 33.3589 -97.0828 100° East 257 296 4,000  Level Fort Worth Center
Sat 03:08:34 PM 33.3461 -96.9983 100° East 257 296 4,000  Level Fort Worth Center
Sat 03:09:34 PM 33.3106 -96.9261 120° Southeast 247 284 4,000  Level Fort Worth Center
Sat 03:10:34 PM 33.2581 -96.8694 138° Southeast 253 291 4,000 -300 Level Fort Worth Center
Sat 03:11:34 PM 33.1911 -96.8575 172° South 246 283 3,400 -500 Descending Fort Worth Center
Sat 03:12:34 PM 33.1222 -96.8528 177° South 246 283 3,000 -200 Descending Fort Worth Center
Sat 03:13:34 PM 33.0597 -96.8731 195° South 254 292 3,000 -50 Level Fort Worth Center
Sat 03:14:34 PM 33.0075 -96.8883 194° South 237 273 2,900 -448 Descending Fort Worth Center
Sat 03:15:48 PM 32.9500 -96.9000 190° South 167 192 2,000 -537 Descending Dallas / Fort Worth TRACON
Sat 03:16:48 PM 32.9000 -96.9000 180° South 155 178 1,700 -500 Descending Dallas / Fort Worth TRACON
Sat 03:17:48 PM 32.8833 -96.8833 140° Southeast 106 122 1,000 -700 Descending Dallas / Fort Worth TRACON
Sat 03:19:00 PM 32.8471 -96.8518 178° South  Level Estimated
Sat 03:26:00 PM 32.8471 -96.8518 178° South  Level Estimated

Login

Don't have an account? Register now (free) for customized features, flight alerts, and more!